Главная страница
METAR-TAF:

METAR-TAF

Аэропорты :

Стокгольм-Бромма

Стокгольм, Швеция

широта: 59-21N, долгота: 017-57E, высота над уровнем моря: 14 м

Текущие метеонаблюдения

Эта сводка был подготовлена 27 минут назад, в 14:20 UTC
Ветер 5 Узел от северо-северо-восточный, изменяющийся между северный и восточно-северо-восточный
Температура 3°C
Влажность 100%
Давление 1025 hPa
Видимость: 2500 м
Сплошная облачность на высоте 200 фута
дымка

METAR: ESSB 151420Z 02005KT 350V060 2500 BR OVC002 03/03 Q1025 R12/19//95

Время: 15:47 (14:47 UTC)

Прогноз

Эта сводка был подготовлена 17 минут назад, в 14:30 UTC
Прогноз действительный с 15-го 15 UTC до 15-го 21 UTC
Ветер 6 Узел от северо-восточный
Видимость: 5000 м
Сплошная облачность на высоте 300 фута
Вероятность 40%
С 15-го 15 UTC до 15-го 21 UTC
Видимость: 1400 м
Отдельные облака на высоте 500 фута
дымка

TAF: ESSB 151430Z 1515/1521 04006KT 5000 OVC003 PROB40 1515/1521 1400 BR SCT005

Метеонаблюдения и прогнозы для более 4000 аэропортов (сводки METAR и TAF).

Имеющиеся станции представлены на карте желтыми и красными точками.

Чтобы увидеть название станции, наведите на нее мышь.

Затем щелкните, чтобы увидеть метеонаблюдения и метеопрогнозы.

Управление картой: чтобы увеличить масштаб, щелкните зеленые кнопки с черным крестиком; чтобы уменьшить масштаб, щелкните зеленую кнопку с тире; для просмотра соседних карт щелкайте зеленые стрелки.


METAR-TAF: